Time;durP1;ratioP1;P1;durP2;ratioP2;P2;SDS_P1;SDS_P2;PMS_P1;PMS_P2;Temp;Humidity;BMP_temperature;BMP_pressure;BME280_temperature;BME280_humidity;BME280_pressure;Samples;Min_cycle;Max_cycle;Signal;HPM_P1;HPM_P2
2023/09/03 00:01:14;;;;;;;3.20;1.40;;;;;;;10.61;80.74;100170.39;110220;1271;99467;-56
2023/09/03 00:03:50;;;;;;;2.40;1.50;;;;;;;10.60;80.97;100171.84;110292;1267;22157;-56
2023/09/03 00:06:18;;;;;;;2.00;1.30;;;;;;;10.60;81.10;100170.82;110186;1271;100201;-56
2023/09/03 00:08:48;;;;;;;1.40;1.30;;;;;;;10.60;81.16;100170.11;110322;1272;22102;-56
2023/09/03 00:11:17;;;;;;;2.10;1.30;;;;;;;10.60;81.07;100171.14;110264;1271;23318;-56
2023/09/03 00:13:45;;;;;;;1.80;1.30;;;;;;;10.61;81.43;100172.50;110193;1271;100019;-56
2023/09/03 00:16:14;;;;;;;2.90;1.70;;;;;;;10.62;81.48;100171.23;110255;1271;22596;-56
2023/09/03 00:18:43;;;;;;;1.60;1.30;;;;;;;10.62;81.52;100165.14;110181;1271;99831;-56
2023/09/03 00:21:11;;;;;;;1.90;1.10;;;;;;;10.62;81.62;100162.69;110326;1272;22372;-56
2023/09/03 00:23:40;;;;;;;2.00;1.10;;;;;;;10.61;81.78;100164.33;110323;1259;22204;-56
2023/09/03 00:26:21;;;;;;;1.80;1.10;;;;;;;10.59;81.77;100159.73;110306;1271;22312;-56
2023/09/03 00:28:49;;;;;;;3.20;1.60;;;;;;;10.56;81.53;100159.30;110184;1270;22444;-56
2023/09/03 00:31:18;;;;;;;1.50;1.10;;;;;;;10.53;81.60;100157.47;110233;1271;99888;-56
2023/09/03 00:33:46;;;;;;;1.60;1.20;;;;;;;10.52;81.86;100156.83;110300;1271;22258;-56
2023/09/03 00:36:15;;;;;;;2.60;1.40;;;;;;;10.52;82.30;100159.58;110234;1271;99914;-56
2023/09/03 00:38:47;;;;;;;2.30;1.60;;;;;;;10.54;82.93;100158.84;110318;1271;22362;-56
2023/09/03 00:41:16;;;;;;;3.20;2.10;;;;;;;10.58;82.91;100158.00;110351;1271;22429;-56
2023/09/03 00:43:44;;;;;;;1.60;0.90;;;;;;;10.60;83.08;100154.59;110203;1271;99310;-56
2023/09/03 00:46:13;;;;;;;1.30;1.00;;;;;;;10.63;83.59;100151.35;110306;1271;22355;-56
2023/09/03 00:48:43;;;;;;;1.50;1.10;;;;;;;10.66;83.71;100153.98;110239;1271;98222;-57
2023/09/03 00:51:12;;;;;;;1.70;0.90;;;;;;;10.71;83.97;100149.83;110229;1273;22974;-56
2023/09/03 00:53:45;;;;;;;1.80;1.00;;;;;;;10.74;84.31;100150.37;110302;1272;22946;-56
2023/09/03 00:56:13;;;;;;;2.70;2.10;;;;;;;10.76;84.38;100149.41;110209;1273;22249;-56
2023/09/03 00:58:43;;;;;;;2.30;0.90;;;;;;;10.79;84.45;100146.33;110165;1272;22319;-56
2023/09/03 01:01:11;;;;;;;1.70;1.10;;;;;;;10.81;84.28;100141.90;110169;1272;100407;-56
2023/09/03 01:03:42;;;;;;;2.80;1.10;;;;;;;10.81;84.06;100135.96;110187;1272;26919;-56
2023/09/03 01:06:11;;;;;;;1.50;1.20;;;;;;;10.79;84.11;100131.02;110149;1272;100038;-56
2023/09/03 01:08:41;;;;;;;1.40;1.00;;;;;;;10.77;84.39;100132.48;110143;1272;22940;-55
2023/09/03 01:11:30;;;;;;;2.90;1.20;;;;;;;10.77;84.51;100126.41;110210;1272;22906;-56
2023/09/03 01:14:19;;;;;;;1.50;1.10;;;;;;;10.75;84.70;100125.42;110158;1272;99108;-56
2023/09/03 01:17:16;;;;;;;1.70;1.10;;;;;;;10.76;84.85;100127.13;110240;1275;22477;-57
2023/09/03 01:20:05;;;;;;;2.70;1.10;;;;;;;10.77;85.06;100123.41;110163;1272;99962;-56
2023/09/03 01:23:03;;;;;;;3.20;1.20;;;;;;;10.78;85.06;100123.19;110206;1274;22128;-56
2023/09/03 01:25:38;;;;;;;3.10;1.00;;;;;;;10.79;85.61;100123.02;110127;1272;100524;-56
2023/09/03 01:28:25;;;;;;;1.70;1.20;;;;;;;10.77;85.67;100127.09;110247;1273;23144;-56
2023/09/03 01:31:04;;;;;;;2.80;1.30;;;;;;;10.72;85.71;100131.80;110135;1271;99915;-56
2023/09/03 01:33:34;;;;;;;19.40;1.70;;;;;;;10.69;85.89;100130.38;110251;1272;22182;-56
2023/09/03 01:36:06;;;;;;;1.90;1.20;;;;;;;10.68;86.19;100131.47;110152;1272;99610;-56
2023/09/03 01:38:36;;;;;;;1.60;1.00;;;;;;;10.67;86.50;100131.67;110226;1272;22934;-56
2023/09/03 01:41:06;;;;;;;2.20;1.30;;;;;;;10.67;86.36;100130.45;110234;1272;23151;-56
2023/09/03 01:43:35;;;;;;;1.80;1.30;;;;;;;10.65;86.39;100130.70;110047;1264;99709;-56
2023/09/03 01:46:06;;;;;;;3.90;2.00;;;;;;;10.63;86.47;100127.85;110232;1265;22648;-56
2023/09/03 01:48:39;;;;;;;3.90;1.10;;;;;;;10.59;86.30;100129.05;110180;1272;99881;-56
2023/09/03 01:51:26;;;;;;;2.60;1.10;;;;;;;10.55;86.10;100129.21;110243;1271;22312;-56
2023/09/03 01:54:08;;;;;;;2.40;1.50;;;;;;;10.49;86.03;100130.31;110170;1271;99493;-56
2023/09/03 01:56:43;;;;;;;1.40;1.10;;;;;;;10.44;86.48;100133.98;110239;1270;23221;-55
2023/09/03 01:59:18;;;;;;;1.60;1.00;;;;;;;10.41;86.70;100136.05;110353;1271;22158;-56
2023/09/03 02:01:50;;;;;;;2.00;1.40;;;;;;;10.38;86.70;100131.27;110196;1273;101242;-56
2023/09/03 02:04:19;;;;;;;1.20;0.80;;;;;;;10.36;86.80;100136.60;110273;1270;22294;-56
2023/09/03 02:06:48;;;;;;;2.00;1.40;;;;;;;10.33;87.17;100141.40;110125;1268;99871;-56
2023/09/03 02:09:16;;;;;;;2.20;1.30;;;;;;;10.31;87.29;100146.35;110372;1270;22339;-56
2023/09/03 02:11:45;;;;;;;1.40;0.90;;;;;;;10.29;87.66;100147.29;110338;1270;99631;-55
2023/09/03 02:14:14;;;;;;;2.00;1.30;;;;;;;10.28;87.53;100146.29;110252;1270;22276;-56
2023/09/03 02:16:42;;;;;;;1.80;1.00;;;;;;;10.28;87.54;100142.83;110253;1270;22280;-56
2023/09/03 02:19:11;;;;;;;1.50;0.80;;;;;;;10.24;87.47;100143.48;110331;1270;99385;-55
2023/09/03 02:21:40;;;;;;;2.00;1.20;;;;;;;10.21;87.61;100143.91;110408;1270;22147;-56
2023/09/03 02:24:08;;;;;;;1.00;0.80;;;;;;;10.19;87.86;100136.86;110301;1267;102498;-56
2023/09/03 02:26:44;;;;;;;1.90;1.00;;;;;;;10.16;87.73;100140.81;110401;1270;22144;-56
2023/09/03 02:29:13;;;;;;;1.40;0.80;;;;;;;10.10;87.75;100141.39;110389;1270;23097;-56
2023/09/03 02:31:41;;;;;;;1.30;0.80;;;;;;;10.05;87.65;100138.46;110291;1272;99419;-56
2023/09/03 02:34:13;;;;;;;2.10;1.00;;;;;;;10.00;87.51;100142.29;110350;1254;22319;-56
2023/09/03 02:36:42;;;;;;;1.30;0.90;;;;;;;9.95;87.41;100142.14;110281;1270;101047;-55
2023/09/03 02:39:11;;;;;;;1.50;1.00;;;;;;;9.92;87.61;100141.21;110389;1272;22348;-55
2023/09/03 02:41:39;;;;;;;1.10;0.90;;;;;;;9.92;88.09;100143.65;110225;1273;22357;-56
2023/09/03 02:44:09;;;;;;;1.60;1.10;;;;;;;9.93;88.48;100148.80;110181;1270;99008;-55
2023/09/03 02:46:38;;;;;;;2.90;0.80;;;;;;;9.96;88.77;100145.77;110369;1259;22218;-56
2023/09/03 02:49:07;;;;;;;1.60;0.90;;;;;;;9.98;88.98;100146.19;110241;1270;99136;-56
2023/09/03 02:51:38;;;;;;;1.40;0.90;;;;;;;10.01;89.29;100146.58;110389;1270;22434;-56
2023/09/03 02:54:06;;;;;;;1.80;1.10;;;;;;;10.04;89.42;100149.77;110183;1269;100474;-56
2023/09/03 02:56:35;;;;;;;2.10;1.10;;;;;;;10.05;89.49;100150.46;110329;1271;22272;-56
2023/09/03 02:59:03;;;;;;;1.90;1.20;;;;;;;10.02;89.30;100151.42;110371;1270;22296;-55
2023/09/03 03:01:33;;;;;;;2.40;1.10;;;;;;;10.01;89.42;100150.39;110293;1270;99558;-56
2023/09/03 03:04:03;;;;;;;2.60;1.00;;;;;;;10.00;89.28;100157.42;110203;1270;22246;-55
2023/09/03 03:06:32;;;;;;;3.80;1.10;;;;;;;9.99;89.24;100155.71;110293;1271;99795;-56
2023/09/03 03:09:00;;;;;;;1.40;1.30;;;;;;;9.98;89.26;100155.08;110363;1270;22402;-55
2023/09/03 03:11:29;;;;;;;5.40;1.10;;;;;;;9.99;89.52;100154.50;110372;1270;22113;-55
2023/09/03 03:13:57;;;;;;;1.50;1.00;;;;;;;10.02;89.83;100154.38;110253;1270;100129;-55
2023/09/03 03:16:25;;;;;;;2.00;0.80;;;;;;;10.07;89.84;100148.09;110328;1270;22247;-56
2023/09/03 03:18:54;;;;;;;1.80;1.60;;;;;;;10.13;89.89;100144.93;110308;1270;99795;-56
2023/09/03 03:21:22;;;;;;;1.10;0.90;;;;;;;10.15;90.12;100148.15;110365;1270;22306;-56
2023/09/03 03:23:52;;;;;;;1.10;0.80;;;;;;;10.15;90.19;100146.24;110258;1271;99460;-56
2023/09/03 03:26:20;;;;;;;1.80;1.10;;;;;;;10.11;90.00;100151.43;110332;1272;22275;-56
2023/09/03 03:28:49;;;;;;;2.00;1.20;;;;;;;10.05;90.04;100152.34;110348;1270;22277;-56
2023/09/03 03:31:19;;;;;;;1.30;1.00;;;;;;;10.01;89.69;100153.39;110137;1270;99282;-56
2023/09/03 03:33:48;;;;;;;1.40;1.10;;;;;;;9.98;89.89;100153.66;110384;1270;23443;-56
2023/09/03 03:36:20;;;;;;;2.20;1.40;;;;;;;9.97;89.90;100153.02;110281;1272;100149;-56
2023/09/03 03:38:49;;;;;;;1.40;0.90;;;;;;;9.97;90.25;100150.39;110252;1270;23598;-56
2023/09/03 03:41:19;;;;;;;1.00;0.70;;;;;;;9.99;90.54;100151.21;110283;1274;22333;-56
2023/09/03 03:43:49;;;;;;;1.60;1.20;;;;;;;9.97;90.35;100149.70;110240;1271;99698;-56
2023/09/03 03:46:20;;;;;;;1.40;1.20;;;;;;;9.94;90.59;100157.14;110387;1270;22276;-56
2023/09/03 03:48:49;;;;;;;1.20;0.90;;;;;;;9.92;90.79;100158.25;110317;1270;99079;-56
2023/09/03 03:51:18;;;;;;;0.90;0.80;;;;;;;9.90;90.70;100156.60;110217;1273;23151;-56
2023/09/03 03:53:49;;;;;;;1.20;0.90;;;;;;;9.89;90.94;100161.48;110250;1270;99220;-55
2023/09/03 03:56:18;;;;;;;1.80;1.10;;;;;;;9.87;91.19;100161.23;110355;1272;22212;-56
2023/09/03 03:58:46;;;;;;;1.30;0.90;;;;;;;9.87;91.10;100162.10;110227;1272;22320;-56
2023/09/03 04:01:17;;;;;;;1.40;1.00;;;;;;;9.82;90.81;100161.77;110163;1272;99263;-56
2023/09/03 04:03:48;;;;;;;2.30;1.10;;;;;;;9.78;90.90;100160.52;110220;1272;22892;-56
2023/09/03 04:06:17;;;;;;;1.60;0.90;;;;;;;9.76;90.96;100162.67;110139;1272;99841;-56
2023/09/03 04:08:47;;;;;;;9.80;2.70;;;;;;;9.78;91.26;100160.70;110238;1272;23386;-56
2023/09/03 04:11:19;;;;;;;0.90;0.70;;;;;;;9.83;91.60;100165.70;110199;1272;22473;-55
2023/09/03 04:13:47;;;;;;;1.50;0.70;;;;;;;9.90;91.74;100158.86;110117;1272;99089;-56
2023/09/03 04:16:19;;;;;;;2.00;1.00;;;;;;;9.96;91.51;100157.07;110206;1273;22366;-56
2023/09/03 04:18:51;;;;;;;2.30;1.10;;;;;;;10.00;91.57;100157.59;110110;1272;99332;-56
2023/09/03 04:21:20;;;;;;;1.30;0.90;;;;;;;10.06;91.75;100156.51;110181;1272;22498;-56
2023/09/03 04:23:48;;;;;;;6.80;2.40;;;;;;;10.13;92.04;100164.78;110121;1262;100040;-56
2023/09/03 04:26:17;;;;;;;1.10;0.70;;;;;;;10.24;92.33;100159.65;110220;1272;22264;-56
2023/09/03 04:28:45;;;;;;;1.30;1.00;;;;;;;10.36;92.34;100156.44;110128;1272;22251;-56
2023/09/03 04:31:14;;;;;;;1.60;0.70;;;;;;;10.45;92.22;100149.42;110007;1272;99383;-56
2023/09/03 04:33:42;;;;;;;1.20;0.80;;;;;;;10.53;92.29;100148.96;110258;1266;22107;-57
2023/09/03 04:36:11;;;;;;;0.80;0.70;;;;;;;10.57;92.30;100144.96;110125;1272;99437;-56
2023/09/03 04:38:39;;;;;;;1.40;0.80;;;;;;;10.61;92.15;100143.08;110229;1272;22264;-56
2023/09/03 04:41:08;;;;;;;1.40;1.00;;;;;;;10.67;92.67;100142.66;110241;1272;22131;-56
2023/09/03 04:43:37;;;;;;;1.70;1.20;;;;;;;10.72;92.96;100145.41;110143;1273;100158;-56
2023/09/03 04:46:05;;;;;;;1.90;1.00;;;;;;;10.81;93.76;100145.36;110208;1273;22278;-56
2023/09/03 04:48:34;;;;;;;3.10;1.00;;;;;;;10.90;94.05;100146.73;109994;1272;100252;-56
2023/09/03 04:51:03;;;;;;;2.20;1.30;;;;;;;10.97;94.17;100148.70;110197;1272;22340;-56
2023/09/03 04:53:32;;;;;;;1.20;1.00;;;;;;;11.06;94.45;100148.36;110223;1272;22848;-56
2023/09/03 04:56:04;;;;;;;1.70;1.00;;;;;;;11.17;94.53;100152.07;110118;1272;99644;-56
2023/09/03 04:58:33;;;;;;;2.10;1.00;;;;;;;11.28;94.47;100153.12;110230;1272;23022;-56
2023/09/03 05:01:01;;;;;;;1.50;1.00;;;;;;;11.40;94.38;100153.67;110166;1271;99910;-57
2023/09/03 05:03:29;;;;;;;2.80;1.30;;;;;;;11.51;94.56;100157.20;110257;1272;22375;-57
2023/09/03 05:05:59;;;;;;;0.80;0.70;;;;;;;11.66;94.59;100157.56;110200;1271;98496;-57
2023/09/03 05:08:27;;;;;;;1.30;0.90;;;;;;;11.84;94.65;100154.87;110315;1272;22395;-57
2023/09/03 05:10:56;;;;;;;2.90;1.00;;;;;;;12.02;94.88;100161.36;110269;1272;22548;-56
2023/09/03 05:13:24;;;;;;;1.80;1.00;;;;;;;12.21;95.30;100164.14;110174;1257;99833;-56
2023/09/03 05:15:53;;;;;;;1.40;1.20;;;;;;;12.43;95.73;100166.79;110309;1272;22248;-56
2023/09/03 05:18:21;;;;;;;1.70;1.20;;;;;;;12.66;96.01;100176.34;110177;1268;99452;-57
2023/09/03 05:20:51;;;;;;;1.60;1.20;;;;;;;12.87;96.04;100176.69;110324;1272;22270;-56
2023/09/03 05:23:19;;;;;;;4.80;1.00;;;;;;;13.05;96.11;100181.75;110156;1273;23100;-57
2023/09/03 05:25:49;;;;;;;1.70;1.20;;;;;;;13.26;96.40;100187.38;110014;1271;100053;-56
2023/09/03 05:28:17;;;;;;;2.10;1.20;;;;;;;13.49;96.66;100184.93;110231;1273;22149;-56
2023/09/03 05:30:50;;;;;;;2.00;1.40;;;;;;;13.81;97.08;100187.66;110162;1272;99398;-56
2023/09/03 05:33:19;;;;;;;3.40;1.40;;;;;;;14.17;97.50;100183.92;110262;1272;22396;-57
2023/09/03 05:35:48;;;;;;;5.10;1.60;;;;;;;14.56;97.82;100179.34;110195;1271;100143;-57
2023/09/03 05:38:17;;;;;;;2.90;1.30;;;;;;;14.93;97.70;100177.80;110279;1272;22328;-57
2023/09/03 05:40:46;;;;;;;2.90;1.20;;;;;;;15.22;97.42;100176.61;110266;1272;22131;-57
2023/09/03 05:43:15;;;;;;;3.70;1.30;;;;;;;15.53;97.06;100177.73;110229;1265;99444;-56
2023/09/03 05:45:45;;;;;;;2.20;1.80;;;;;;;15.71;96.37;100181.59;110247;1272;22417;-56
2023/09/03 05:48:14;;;;;;;1.70;0.80;;;;;;;15.90;96.53;100182.16;110157;1272;99503;-57
2023/09/03 05:50:43;;;;;;;2.00;1.30;;;;;;;16.09;96.37;100186.21;110283;1271;22306;-57
2023/09/03 05:53:13;;;;;;;1.40;0.90;;;;;;;16.20;95.94;100182.73;110227;1271;22390;-58
2023/09/03 05:55:42;;;;;;;2.30;1.30;;;;;;;16.23;95.56;100180.46;110119;1272;99374;-58
2023/09/03 05:58:11;;;;;;;2.60;1.00;;;;;;;16.22;95.42;100181.92;110173;1275;22252;-58
2023/09/03 06:00:41;;;;;;;2.80;1.30;;;;;;;16.18;95.13;100181.31;110075;1271;99998;-59
2023/09/03 06:03:11;;;;;;;2.00;1.40;;;;;;;16.14;95.18;100179.26;110076;1272;23037;-58
2023/09/03 06:05:40;;;;;;;1.70;1.40;;;;;;;16.18;95.33;100181.78;109991;1271;305585;-58
2023/09/03 06:08:09;;;;;;;2.40;1.10;;;;;;;16.23;95.12;100181.83;110192;1273;22294;-57
2023/09/03 06:10:41;;;;;;;3.00;1.50;;;;;;;16.17;94.51;100185.04;110062;1272;22377;-57
2023/09/03 06:13:09;;;;;;;3.50;1.90;;;;;;;16.07;94.50;100181.59;110009;1272;99928;-57
2023/09/03 06:15:38;;;;;;;1.90;1.30;;;;;;;16.15;94.82;100180.44;110076;1273;22865;-58
2023/09/03 06:18:07;;;;;;;2.80;1.30;;;;;;;16.23;94.69;100178.86;110057;1272;101322;-58
2023/09/03 06:20:37;;;;;;;4.90;1.40;;;;;;;16.27;94.47;100183.67;110076;1272;22901;-58
2023/09/03 06:23:06;;;;;;;1.60;0.80;;;;;;;16.35;94.49;100179.48;110103;1275;22267;-59
2023/09/03 06:25:38;;;;;;;2.10;1.40;;;;;;;16.43;94.72;100174.23;110004;1273;99609;-57
2023/09/03 06:28:06;;;;;;;2.00;0.90;;;;;;;16.57;94.69;100171.96;110086;1272;22276;-56
2023/09/03 06:30:36;;;;;;;3.00;1.20;;;;;;;16.66;94.55;100177.68;110020;1272;99431;-58
2023/09/03 06:33:05;;;;;;;4.60;1.80;;;;;;;16.71;94.29;100179.81;110078;1272;23116;-57
2023/09/03 06:35:34;;;;;;;2.70;1.30;;;;;;;16.81;94.76;100184.84;110043;1272;22292;-59
2023/09/03 06:38:02;;;;;;;1.80;1.00;;;;;;;16.99;95.05;100184.54;109955;1275;99986;-56
2023/09/03 06:40:31;;;;;;;1.90;0.80;;;;;;;17.10;94.81;100183.92;110092;1272;22285;-59
2023/09/03 06:43:00;;;;;;;2.30;1.00;;;;;;;17.37;94.52;100180.88;110062;1271;99319;-59
2023/09/03 06:45:30;;;;;;;3.60;1.00;;;;;;;17.59;94.39;100174.29;110002;1275;22943;-61
2023/09/03 06:48:00;;;;;;;1.70;1.10;;;;;;;17.84;94.31;100176.11;109942;1275;101360;-61
2023/09/03 06:50:33;;;;;;;4.50;1.50;;;;;;;18.03;94.69;100175.23;110018;1272;22365;-60
2023/09/03 06:53:10;;;;;;;3.10;1.20;;;;;;;18.32;94.28;100174.63;110005;1272;22319;-60
2023/09/03 06:56:01;;;;;;;2.40;0.80;;;;;;;18.47;94.28;100182.51;110010;1272;99395;-61
2023/09/03 06:58:38;;;;;;;4.70;1.10;;;;;;;18.89;94.22;100179.30;110148;1272;22272;-61
2023/09/03 07:01:17;;;;;;;;;;;;;;;19.33;94.18;100180.03;110152;1272;100091;-61
2023/09/03 07:04:23;;;;;;;2.40;1.50;;;;;;;19.86;94.36;100176.80;109996;1274;22225;-62
2023/09/03 07:06:56;;;;;;;1.70;1.00;;;;;;;20.56;94.22;100180.36;109966;1276;99667;-66
2023/09/03 07:09:32;;;;;;;1.80;0.90;;;;;;;21.23;93.98;100182.67;110070;1273;22399;-56
2023/09/03 07:12:02;;;;;;;3.60;1.60;;;;;;;21.67;92.64;100184.52;109890;1273;99043;-57
2023/09/03 07:14:57;;;;;;;6.70;2.30;;;;;;;21.96;92.35;100182.36;110113;1273;23161;-62
2023/09/03 07:17:26;;;;;;;2.00;1.00;;;;;;;22.27;91.46;100183.05;110084;1275;22141;-61
2023/09/03 07:19:55;;;;;;;2.50;1.20;;;;;;;22.50;90.39;100191.15;110028;1273;99865;-59
2023/09/03 07:22:24;;;;;;;2.30;1.00;;;;;;;22.57;89.19;100196.36;110114;1273;22296;-57
2023/09/03 07:24:53;;;;;;;2.40;1.10;;;;;;;22.52;88.85;100200.30;109992;1274;100058;-60
2023/09/03 07:27:26;;;;;;;1.60;0.90;;;;;;;22.31;87.52;100208.07;110115;1275;22173;-59
2023/09/03 07:30:13;;;;;;;2.10;0.80;;;;;;;22.23;86.40;100208.67;110038;1275;99390;-60
2023/09/03 07:33:40;;;;;;;;;;;;;;;22.08;85.87;100215.16;110041;1275;22740;-59
2023/09/03 07:36:10;;;;;;;3.60;1.10;;;;;;;22.08;84.87;100210.80;109777;1281;86042;-59
2023/09/03 07:38:39;;;;;;;3.40;1.30;;;;;;;21.99;84.39;100217.83;109699;1280;22366;-58
2023/09/03 07:41:09;;;;;;;1.50;1.10;;;;;;;22.16;83.81;100224.63;109793;1281;22218;-58
2023/09/03 07:43:38;;;;;;;1.80;0.90;;;;;;;22.06;83.05;100223.84;109788;1280;100157;-59
2023/09/03 07:46:07;;;;;;;1.40;0.70;;;;;;;21.94;83.06;100229.03;109792;1281;22292;-59
2023/09/03 07:48:37;;;;;;;2.50;0.70;;;;;;;22.14;83.32;100231.73;109392;1279;98883;-59
2023/09/03 07:51:05;;;;;;;1.30;0.70;;;;;;;22.62;82.33;100238.33;109841;1279;22376;-59
2023/09/03 07:53:34;;;;;;;4.10;1.60;;;;;;;23.01;82.52;100238.53;109814;1279;22217;-57
2023/09/03 07:56:04;;;;;;;1.30;0.60;;;;;;;23.49;81.30;100245.33;109640;1280;100113;-58
2023/09/03 07:58:32;;;;;;;1.50;1.00;;;;;;;23.76;82.59;100244.52;109816;1279;22309;-59
2023/09/03 08:01:01;;;;;;;1.50;1.00;;;;;;;25.19;82.18;100245.52;109797;1282;100178;-58
2023/09/03 08:03:37;;;;;;;1.40;0.80;;;;;;;26.66;82.61;100246.55;109832;1280;22877;-58
2023/09/03 08:06:07;;;;;;;2.00;0.90;;;;;;;28.35;79.25;100242.05;109629;1280;100684;-59
2023/09/03 08:08:38;;;;;;;1.30;0.80;;;;;;;28.12;76.84;100245.40;109829;1281;23010;-58
2023/09/03 08:11:07;;;;;;;1.30;0.60;;;;;;;29.27;80.05;100239.83;110119;1273;22351;-58
2023/09/03 08:13:36;;;;;;;2.20;0.50;;;;;;;30.87;78.49;100245.64;109977;1278;100982;-59
2023/09/03 08:16:05;;;;;;;0.80;0.50;;;;;;;32.06;75.69;100246.68;110156;1273;22288;-59
2023/09/03 08:18:34;;;;;;;2.60;0.50;;;;;;;32.16;73.31;100254.70;109938;1274;100197;-59
2023/09/03 08:21:44;;;;;;;;;;;;;;;;;;;;;
2023/09/03 08:24:26;;;;;;;2.50;0.50;;;;;;;29.56;68.33;100248.11;109969;1274;99501;-58
2023/09/03 08:27:08;;;;;;;1.20;0.40;;;;;;;28.38;67.74;100246.60;110024;1273;22669;-58
2023/09/03 08:29:43;;;;;;;3.40;0.80;;;;;;;26.75;65.47;100247.67;109969;1273;22184;-59
2023/09/03 08:32:23;;;;;;;1.00;0.60;;;;;;;25.24;65.34;100252.08;109890;1274;99382;-58
2023/09/03 08:35:02;;;;;;;0.60;0.30;;;;;;;24.64;66.19;100242.98;110048;1273;22145;-58
2023/09/03 08:37:42;;;;;;;1.00;0.60;;;;;;;24.33;65.54;100240.54;109975;1275;99637;-58
2023/09/03 08:40:17;;;;;;;1.60;0.60;;;;;;;25.74;68.09;100243.08;109994;1273;23156;-58
2023/09/03 08:42:52;;;;;;;1.50;0.50;;;;;;;26.83;65.18;100249.04;109949;1272;99494;-58
2023/09/03 08:45:31;;;;;;;1.00;0.60;;;;;;;28.30;66.97;100244.39;110026;1274;22281;-59
2023/09/03 08:48:00;;;;;;;0.70;0.40;;;;;;;31.15;66.47;100242.58;109976;1276;100066;-58
2023/09/03 08:50:30;;;;;;;1.70;0.60;;;;;;;34.51;66.05;100235.98;110159;1275;22264;-59
2023/09/03 08:53:02;;;;;;;1.00;0.40;;;;;;;36.05;62.25;100236.33;110141;1275;22118;-59
2023/09/03 08:55:32;;;;;;;1.40;0.30;;;;;;;34.21;59.08;100240.45;109988;1275;100765;-59
2023/09/03 08:58:04;;;;;;;1.60;0.60;;;;;;;31.78;57.84;100239.59;110105;1275;22297;-59
2023/09/03 09:00:33;;;;;;;0.90;0.40;;;;;;;31.05;58.45;100236.73;110053;1279;101261;-59
2023/09/03 09:03:05;;;;;;;0.80;0.50;;;;;;;30.42;57.32;100235.85;110161;1276;22209;-59
2023/09/03 09:05:35;;;;;;;1.20;0.40;;;;;;;32.51;58.49;100226.67;110218;1273;22019;-59
2023/09/03 09:08:05;;;;;;;1.60;0.50;;;;;;;35.33;57.12;100225.41;110118;1275;99821;-59
2023/09/03 09:10:37;;;;;;;1.00;0.60;;;;;;;36.69;55.12;100227.27;110177;1273;22160;-59
2023/09/03 09:13:08;;;;;;;0.90;0.50;;;;;;;38.78;54.00;100220.69;110119;1272;99710;-59
2023/09/03 09:15:42;;;;;;;0.60;0.60;;;;;;;40.75;53.30;100214.52;110169;1276;22249;-59
2023/09/03 09:18:11;;;;;;;0.70;0.40;;;;;;;41.70;49.20;100213.11;110114;1275;100678;-57
2023/09/03 09:20:40;;;;;;;0.90;0.60;;;;;;;42.33;47.77;100214.85;110190;1275;23012;-58
2023/09/03 09:23:09;;;;;;;1.50;0.80;;;;;;;42.52;47.32;100222.77;110166;1275;22889;-57
2023/09/03 09:25:38;;;;;;;2.00;0.60;;;;;;;44.06;46.49;100229.71;110104;1277;99877;-57
2023/09/03 09:28:12;;;;;;;0.50;0.50;;;;;;;44.75;42.31;100227.67;110131;1275;22281;-57
2023/09/03 09:30:56;;;;;;;0.80;0.50;;;;;;;44.86;39.18;100229.91;110095;1276;99893;-57
2023/09/03 09:33:26;;;;;;;1.40;0.60;;;;;;;44.48;36.81;100227.24;110180;1275;22690;-58
2023/09/03 09:36:10;;;;;;;0.60;0.60;;;;;;;43.71;33.21;100231.51;110098;1275;100535;-57
2023/09/03 09:38:39;;;;;;;0.80;0.50;;;;;;;42.52;31.56;100232.70;110192;1275;22302;-58
2023/09/03 09:41:23;;;;;;;0.90;0.50;;;;;;;40.57;31.23;100229.61;110188;1275;24186;-58
2023/09/03 09:43:53;;;;;;;1.10;0.60;;;;;;;41.76;31.22;100235.11;110051;1275;99904;-58
2023/09/03 09:46:30;;;;;;;1.80;0.70;;;;;;;43.07;29.62;100234.71;110135;1269;22291;-58
2023/09/03 09:49:00;;;;;;;1.40;0.90;;;;;;;43.29;27.45;100237.30;110070;1275;99345;-58
2023/09/03 09:51:30;;;;;;;2.70;1.30;;;;;;;44.05;27.96;100239.90;110151;1274;23509;-57
2023/09/03 09:54:01;;;;;;;0.70;0.70;;;;;;;44.96;27.16;100243.23;110051;1274;99506;-58
2023/09/03 09:56:34;;;;;;;1.00;1.00;;;;;;;45.02;26.01;100249.39;110060;1274;22123;-60
2023/09/03 09:59:03;;;;;;;1.10;1.00;;;;;;;44.95;25.64;100252.82;110224;1272;22148;-59
2023/09/03 10:01:43;;;;;;;1.10;1.00;;;;;;;45.75;25.65;100255.52;110167;1274;99278;-58
2023/09/03 10:04:12;;;;;;;1.30;1.20;;;;;;;46.83;25.75;100256.59;110212;1272;22270;-58
2023/09/03 10:06:44;;;;;;;1.80;1.70;;;;;;;47.94;25.11;100256.54;110149;1272;99167;-58
2023/09/03 10:09:12;;;;;;;3.20;2.00;;;;;;;47.90;24.30;100257.70;110089;1273;23039;-59
2023/09/03 10:11:44;;;;;;;3.40;2.10;;;;;;;48.18;23.70;100259.98;110089;1276;22416;-55
2023/09/03 10:14:15;;;;;;;1.80;1.70;;;;;;;47.78;22.92;100256.20;110043;1273;99096;-56
2023/09/03 10:16:52;;;;;;;1.20;1.20;;;;;;;46.49;22.13;100249.73;110224;1272;22260;-57
2023/09/03 10:19:28;;;;;;;1.10;1.00;;;;;;;44.06;21.54;100247.62;110037;1272;99364;-63
2023/09/03 10:22:01;;;;;;;2.70;0.90;;;;;;;41.31;21.74;100248.55;110191;1272;22174;-55
2023/09/03 10:24:33;;;;;;;;;;;;;;;38.63;22.13;100251.65;110099;1272;99272;-58
2023/09/03 10:27:09;;;;;;;0.70;0.50;;;;;;;36.49;22.70;100249.55;110090;1273;22377;-57
2023/09/03 10:29:47;;;;;;;2.70;0.60;;;;;;;34.91;23.06;100244.68;110120;1273;23525;-60
2023/09/03 10:32:17;;;;;;;0.90;0.40;;;;;;;34.00;23.68;100245.33;109957;1261;99148;-60
2023/09/03 10:34:56;;;;;;;2.00;0.90;;;;;;;34.14;24.52;100246.80;110162;1272;22283;-60
2023/09/03 10:37:39;;;;;;;0.40;0.20;;;;;;;35.41;25.22;100243.01;109980;1267;99365;-61
2023/09/03 10:40:28;;;;;;;1.10;0.50;;;;;;;36.15;25.24;100242.11;110196;1276;22296;-58
2023/09/03 10:43:18;;;;;;;1.40;0.50;;;;;;;36.97;25.65;100245.92;109983;1274;99490;-58
2023/09/03 10:46:07;;;;;;;1.50;0.40;;;;;;;38.56;26.14;100255.13;110234;1272;23027;-58
2023/09/03 10:48:40;;;;;;;0.70;0.40;;;;;;;40.22;26.50;100257.91;110051;1273;99655;-59
2023/09/03 10:51:35;;;;;;;0.30;0.30;;;;;;;41.46;26.11;100260.31;109988;1273;22965;-58
2023/09/03 10:54:24;;;;;;;0.30;0.20;;;;;;;41.42;25.38;100262.16;109935;1276;99447;-59
2023/09/03 10:57:13;;;;;;;1.10;0.40;;;;;;;41.71;25.10;100263.54;110104;1263;22366;-57
2023/09/03 11:00:40;;;;;;;1.30;0.50;;;;;;;42.71;25.16;100259.25;110205;1273;23425;-57
2023/09/03 11:03:18;;;;;;;0.90;0.50;;;;;;;43.23;23.64;100259.58;109734;1280;22296;-58
2023/09/03 11:06:18;;;;;;;0.40;0.30;;;;;;;41.41;22.90;100250.44;109662;1280;23052;-57
2023/09/03 11:09:10;;;;;;;0.90;0.70;;;;;;;40.26;22.56;100251.16;109615;1281;22300;-57
2023/09/03 11:11:44;;;;;;;0.50;0.40;;;;;;;39.21;22.35;100259.64;109611;1280;23088;-58
2023/09/03 11:14:34;;;;;;;1.30;0.50;;;;;;;38.06;22.49;100259.88;109618;1280;99331;-59
2023/09/03 11:17:09;;;;;;;0.50;0.30;;;;;;;36.84;23.18;100259.37;109642;1282;22239;-58
2023/09/03 11:19:41;;;;;;;2.60;0.40;;;;;;;36.21;23.42;100257.25;109595;1280;99859;-58
2023/09/03 11:22:10;;;;;;;0.40;0.20;;;;;;;35.58;23.75;100262.08;109710;1280;23536;-58
2023/09/03 11:24:46;;;;;;;0.30;0.20;;;;;;;34.75;24.13;100265.89;109615;1280;100252;-58
2023/09/03 11:27:14;;;;;;;1.70;0.50;;;;;;;34.36;24.77;100268.77;109715;1280;22186;-58
2023/09/03 11:29:46;;;;;;;1.00;0.50;;;;;;;33.51;24.78;100274.11;109722;1280;22424;-58
2023/09/03 11:32:14;;;;;;;0.70;0.30;;;;;;;32.06;25.34;100274.16;109521;1282;99833;-58
2023/09/03 11:34:43;;;;;;;2.50;0.50;;;;;;;32.53;26.33;100274.17;109780;1269;22137;-58
2023/09/03 11:37:15;;;;;;;0.90;0.40;;;;;;;33.94;26.65;100278.67;109685;1279;99342;-58
2023/09/03 11:39:50;;;;;;;0.70;0.30;;;;;;;34.10;26.71;100282.06;110097;1273;22194;-58
2023/09/03 11:42:19;;;;;;;1.50;0.40;;;;;;;33.59;26.99;100282.31;110002;1272;99415;-58
2023/09/03 11:44:52;;;;;;;1.30;0.40;;;;;;;32.99;27.29;100281.00;110191;1272;24051;-58